EZY85T LSZH-EGKK
Flight info
| Callsign | EZY85T |
|---|---|
| Flight time | 1h 17m |
| Altitude | 34000 |
| Route | LSZH/28 VEBI4W VEBIT T10 TORPA DCT REKLA DCT RLP DCT ROTSI DCT KOTUN DCT NINAL DCT KESAX DCT KUNAV KUNA1G EGKK/TIMBA I08R |
| Aircraft | A320/M-SDE3FGHIRWY/LB1 |
Departure
| Time | 2026-05-05 19:38 |
|---|---|
| Airport | Zürich Airport (LSZH) |
Arrival
| Time | 2026-05-05 20:55 |
|---|---|
| Airport | London Gatwick Airport (EGKK) |
| Time | Latitude | Longitude | Altitude | Speed | Heading |
|---|---|---|---|---|---|
| 2026-05-05 18:25 | 47.45337 | 8.55861 | 1401 ft | 0 kts | 6° |
| 2026-05-05 19:21 | 47.45337 | 8.55860 | 1401 ft | 0 kts | 6° |
| 2026-05-05 19:21 | 47.45330 | 8.55859 | 1401 ft | 2 kts | 6° |
| 2026-05-05 19:22 | 47.45317 | 8.55857 | 1401 ft | 2 kts | 6° |
| 2026-05-05 19:22 | 47.45313 | 8.55857 | 1401 ft | 2 kts | 6° |
| 2026-05-05 19:22 | 47.45300 | 8.55855 | 1401 ft | 0 kts | 6° |
| 2026-05-05 19:22 | 47.45289 | 8.55854 | 1401 ft | 2 kts | 351° |
| 2026-05-05 19:23 | 47.45274 | 8.55860 | 1401 ft | 2 kts | 331° |
| 2026-05-05 19:23 | 47.45262 | 8.55874 | 1402 ft | 2 kts | 310° |
| 2026-05-05 19:23 | 47.45254 | 8.55893 | 1402 ft | 2 kts | 290° |
| 2026-05-05 19:23 | 47.45252 | 8.55906 | 1403 ft | 0 kts | 277° |
| 2026-05-05 19:24 | 47.45251 | 8.55915 | 1403 ft | 0 kts | 275° |
| 2026-05-05 19:26 | 47.45252 | 8.55898 | 1403 ft | 4 kts | 275° |
| 2026-05-05 19:26 | 47.45258 | 8.55823 | 1400 ft | 10 kts | 277° |
| 2026-05-05 19:27 | 47.45265 | 8.55715 | 1397 ft | 10 kts | 276° |
| 2026-05-05 19:27 | 47.45273 | 8.55614 | 1394 ft | 9 kts | 283° |
| 2026-05-05 19:27 | 47.45324 | 8.55542 | 1394 ft | 11 kts | 335° |
| 2026-05-05 19:27 | 47.45400 | 8.55491 | 1393 ft | 13 kts | 335° |
| 2026-05-05 19:28 | 47.45486 | 8.55441 | 1392 ft | 12 kts | 359° |
| 2026-05-05 19:28 | 47.45523 | 8.55524 | 1394 ft | 10 kts | 93° |
| 2026-05-05 19:28 | 47.45517 | 8.55622 | 1396 ft | 8 kts | 97° |
| 2026-05-05 19:28 | 47.45511 | 8.55707 | 1397 ft | 7 kts | 96° |
| 2026-05-05 19:29 | 47.45506 | 8.55784 | 1399 ft | 7 kts | 96° |
| 2026-05-05 19:29 | 47.45500 | 8.55859 | 1400 ft | 7 kts | 96° |
| 2026-05-05 19:29 | 47.45492 | 8.55975 | 1403 ft | 15 kts | 96° |
| 2026-05-05 19:29 | 47.45482 | 8.56117 | 1408 ft | 12 kts | 97° |
| 2026-05-05 19:30 | 47.45488 | 8.56221 | 1411 ft | 9 kts | 57° |
| 2026-05-05 19:30 | 47.45559 | 8.56253 | 1409 ft | 13 kts | 6° |
| 2026-05-05 19:30 | 47.45617 | 8.56263 | 1407 ft | 5 kts | 7° |
| 2026-05-05 19:30 | 47.45628 | 8.56264 | 1407 ft | 0 kts | 7° |
| 2026-05-05 19:33 | 47.45650 | 8.56268 | 1406 ft | 6 kts | 7° |
| 2026-05-05 19:33 | 47.45722 | 8.56279 | 1404 ft | 15 kts | 6° |
| 2026-05-05 19:33 | 47.45777 | 8.56288 | 1403 ft | 0 kts | 6° |
| 2026-05-05 19:33 | 47.45815 | 8.56294 | 1403 ft | 18 kts | 6° |
| 2026-05-05 19:34 | 47.45846 | 8.56298 | 1403 ft | 0 kts | 6° |
| 2026-05-05 19:35 | 47.45847 | 8.56298 | 1403 ft | 0 kts | 6° |
| 2026-05-05 19:36 | 47.45912 | 8.56308 | 1403 ft | 16 kts | 6° |
| 2026-05-05 19:36 | 47.46016 | 8.56323 | 1402 ft | 8 kts | 6° |
| 2026-05-05 19:36 | 47.46025 | 8.56325 | 1402 ft | 1 kts | 6° |
| 2026-05-05 19:36 | 47.46060 | 8.56341 | 1402 ft | 8 kts | 24° |
| 2026-05-05 19:37 | 47.46110 | 8.56398 | 1403 ft | 9 kts | 45° |
| 2026-05-05 19:37 | 47.46167 | 8.56392 | 1401 ft | 11 kts | 320° |
| 2026-05-05 19:37 | 47.46175 | 8.56381 | 1401 ft | 0 kts | 318° |
| 2026-05-05 19:38 | 47.46246 | 8.56283 | 1399 ft | 50 kts | 317° |
| 2026-05-05 19:38 | 47.46730 | 8.55610 | 1387 ft | 137 kts | 319° |
| 2026-05-05 19:38 | 47.47585 | 8.54437 | 1647 ft | 183 kts | 315° |
| 2026-05-05 19:38 | 47.48479 | 8.53143 | 2578 ft | 186 kts | 314° |
| 2026-05-05 19:39 | 47.49393 | 8.51820 | 3575 ft | 190 kts | 316° |
| 2026-05-05 19:39 | 47.50454 | 8.50675 | 4305 ft | 196 kts | 328° |
| 2026-05-05 19:39 | 47.51688 | 8.49645 | 4824 ft | 214 kts | 327° |
| 2026-05-05 19:39 | 47.52777 | 8.48154 | 5412 ft | 222 kts | 295° |
| 2026-05-05 19:40 | 47.53346 | 8.46004 | 6176 ft | 225 kts | 284° |
| 2026-05-05 19:40 | 47.53507 | 8.43787 | 6705 ft | 221 kts | 257° |
| 2026-05-05 19:40 | 47.52951 | 8.41661 | 7351 ft | 224 kts | 243° |
| 2026-05-05 19:40 | 47.52151 | 8.39685 | 7807 ft | 224 kts | 227° |
| 2026-05-05 19:41 | 47.50866 | 8.38381 | 7999 ft | 235 kts | 200° |
| 2026-05-05 19:41 | 47.49176 | 8.37816 | 8013 ft | 261 kts | 193° |
| 2026-05-05 19:41 | 47.47373 | 8.37299 | 8005 ft | 269 kts | 194° |
| 2026-05-05 19:41 | 47.45540 | 8.36740 | 8002 ft | 270 kts | 194° |
| 2026-05-05 19:42 | 47.43714 | 8.36163 | 8000 ft | 270 kts | 194° |
| 2026-05-05 19:42 | 47.41869 | 8.35567 | 8079 ft | 275 kts | 194° |
| 2026-05-05 19:42 | 47.40009 | 8.34821 | 8749 ft | 279 kts | 206° |
| 2026-05-05 19:42 | 47.38503 | 8.33121 | 9713 ft | 277 kts | 231° |
| 2026-05-05 19:43 | 47.37514 | 8.30693 | 10515 ft | 282 kts | 241° |
| 2026-05-05 19:43 | 47.36580 | 8.28020 | 10990 ft | 299 kts | 242° |
| 2026-05-05 19:43 | 47.35606 | 8.25238 | 11505 ft | 313 kts | 241° |
| 2026-05-05 19:43 | 47.34594 | 8.22366 | 12266 ft | 317 kts | 241° |
| 2026-05-05 19:44 | 47.33584 | 8.19516 | 13067 ft | 319 kts | 241° |
| 2026-05-05 19:44 | 47.32541 | 8.16583 | 13853 ft | 322 kts | 241° |
| 2026-05-05 19:44 | 47.31504 | 8.13669 | 14618 ft | 324 kts | 241° |
| 2026-05-05 19:44 | 47.30589 | 8.10637 | 15308 ft | 330 kts | 255° |
| 2026-05-05 19:45 | 47.30547 | 8.07273 | 15959 ft | 339 kts | 278° |
| 2026-05-05 19:45 | 47.31051 | 8.03907 | 16633 ft | 342 kts | 280° |
| 2026-05-05 19:45 | 47.31569 | 8.00485 | 17313 ft | 345 kts | 279° |
| 2026-05-05 19:45 | 47.32064 | 7.97021 | 17955 ft | 348 kts | 278° |
| 2026-05-05 19:46 | 47.32542 | 7.93514 | 18586 ft | 351 kts | 278° |
| 2026-05-05 19:46 | 47.33011 | 7.89951 | 19201 ft | 354 kts | 277° |
| 2026-05-05 19:46 | 47.33469 | 7.86398 | 19794 ft | 358 kts | 277° |
| 2026-05-05 19:46 | 47.33926 | 7.82805 | 20406 ft | 360 kts | 277° |
| 2026-05-05 19:47 | 47.34385 | 7.79160 | 20945 ft | 364 kts | 277° |
| 2026-05-05 19:47 | 47.34842 | 7.75512 | 21475 ft | 368 kts | 277° |
| 2026-05-05 19:47 | 47.35308 | 7.71778 | 22029 ft | 371 kts | 277° |
| 2026-05-05 19:47 | 47.35773 | 7.68042 | 22588 ft | 374 kts | 277° |
| 2026-05-05 19:48 | 47.36466 | 7.64314 | 23123 ft | 380 kts | 285° |
| 2026-05-05 19:48 | 47.37365 | 7.60637 | 23636 ft | 384 kts | 287° |
| 2026-05-05 19:48 | 47.38296 | 7.56938 | 23879 ft | 386 kts | 287° |
| 2026-05-05 19:48 | 47.39215 | 7.53239 | 23881 ft | 385 kts | 286° |
| 2026-05-05 19:49 | 47.40119 | 7.49535 | 23882 ft | 385 kts | 286° |
| 2026-05-05 19:49 | 47.40709 | 7.47094 | 23880 ft | 385 kts | 286° |
| 2026-05-05 19:49 | 47.41909 | 7.42069 | 23930 ft | 389 kts | 285° |
| 2026-05-05 19:49 | 47.42804 | 7.38292 | 24390 ft | 392 kts | 285° |
| 2026-05-05 19:50 | 47.43697 | 7.34513 | 24975 ft | 392 kts | 285° |
| 2026-05-05 19:50 | 47.44598 | 7.30689 | 25479 ft | 395 kts | 285° |
| 2026-05-05 19:50 | 47.45495 | 7.26864 | 25946 ft | 398 kts | 285° |
| 2026-05-05 19:50 | 47.46406 | 7.22970 | 26421 ft | 400 kts | 284° |
| 2026-05-05 19:51 | 47.47316 | 7.19075 | 26872 ft | 402 kts | 284° |
| 2026-05-05 19:51 | 47.48217 | 7.15206 | 27283 ft | 405 kts | 284° |
| 2026-05-05 19:51 | 47.49138 | 7.11244 | 27674 ft | 409 kts | 285° |
| 2026-05-05 19:51 | 47.50065 | 7.07253 | 28061 ft | 412 kts | 285° |
| 2026-05-05 19:52 | 47.50991 | 7.03258 | 28453 ft | 415 kts | 284° |
| 2026-05-05 19:52 | 47.51949 | 6.99234 | 28827 ft | 419 kts | 288° |
| 2026-05-05 19:52 | 47.53312 | 6.95338 | 29175 ft | 426 kts | 297° |
| 2026-05-05 19:52 | 47.54882 | 6.91602 | 29544 ft | 429 kts | 298° |
| 2026-05-05 19:53 | 47.56477 | 6.87886 | 29892 ft | 432 kts | 298° |
| 2026-05-05 19:53 | 47.58086 | 6.84089 | 30220 ft | 434 kts | 298° |
| 2026-05-05 19:53 | 47.59666 | 6.80302 | 30533 ft | 437 kts | 298° |
| 2026-05-05 19:53 | 47.61255 | 6.76449 | 30843 ft | 439 kts | 297° |
| 2026-05-05 19:54 | 47.62849 | 6.72550 | 31109 ft | 441 kts | 297° |
| 2026-05-05 19:54 | 47.64442 | 6.68633 | 31367 ft | 444 kts | 297° |
| 2026-05-05 19:54 | 47.66027 | 6.64717 | 31630 ft | 445 kts | 297° |
| 2026-05-05 19:54 | 47.67608 | 6.60804 | 31891 ft | 447 kts | 297° |
| 2026-05-05 19:55 | 47.69214 | 6.56819 | 32192 ft | 447 kts | 297° |
| 2026-05-05 19:55 | 47.70784 | 6.52915 | 32495 ft | 447 kts | 297° |
| 2026-05-05 19:55 | 47.72375 | 6.48950 | 32760 ft | 447 kts | 297° |
| 2026-05-05 19:55 | 47.73976 | 6.44956 | 33007 ft | 448 kts | 297° |
| 2026-05-05 19:56 | 47.75561 | 6.40996 | 33233 ft | 449 kts | 298° |
| 2026-05-05 19:56 | 47.77135 | 6.37057 | 33424 ft | 449 kts | 298° |
| 2026-05-05 19:56 | 47.78732 | 6.33053 | 33622 ft | 450 kts | 297° |
| 2026-05-05 19:56 | 47.80343 | 6.29006 | 33801 ft | 451 kts | 297° |
| 2026-05-05 19:57 | 47.81933 | 6.25008 | 33845 ft | 453 kts | 297° |
| 2026-05-05 19:57 | 47.85139 | 6.16936 | 33858 ft | 454 kts | 297° |
| 2026-05-05 19:58 | 47.88337 | 6.08857 | 33863 ft | 454 kts | 297° |
| 2026-05-05 19:58 | 47.91533 | 6.00761 | 33866 ft | 454 kts | 297° |
| 2026-05-05 19:59 | 47.94720 | 5.92659 | 33864 ft | 454 kts | 297° |
| 2026-05-05 19:59 | 47.97916 | 5.84507 | 33852 ft | 454 kts | 297° |
| 2026-05-05 20:00 | 48.01093 | 5.76380 | 33851 ft | 454 kts | 298° |
| 2026-05-05 20:00 | 48.04270 | 5.68227 | 33849 ft | 455 kts | 298° |
| 2026-05-05 20:01 | 48.07450 | 5.60043 | 33848 ft | 457 kts | 298° |
| 2026-05-05 20:01 | 48.10623 | 5.51853 | 33835 ft | 457 kts | 298° |
| 2026-05-05 20:02 | 48.13810 | 5.43605 | 33854 ft | 457 kts | 298° |
| 2026-05-05 20:02 | 48.16973 | 5.35392 | 33842 ft | 458 kts | 298° |
| 2026-05-05 20:03 | 48.20140 | 5.27142 | 33829 ft | 458 kts | 297° |
| 2026-05-05 20:03 | 48.23323 | 5.18822 | 33852 ft | 459 kts | 297° |
| 2026-05-05 20:04 | 48.26483 | 5.10540 | 33843 ft | 458 kts | 297° |
| 2026-05-05 20:04 | 48.29618 | 5.02292 | 33846 ft | 459 kts | 298° |
| 2026-05-05 20:05 | 48.32789 | 4.93922 | 33850 ft | 460 kts | 298° |
| 2026-05-05 20:05 | 48.36462 | 4.86109 | 33836 ft | 462 kts | 309° |
| 2026-05-05 20:06 | 48.40655 | 4.78813 | 33832 ft | 462 kts | 310° |
| 2026-05-05 20:06 | 48.44855 | 4.71483 | 33835 ft | 463 kts | 310° |
| 2026-05-05 20:07 | 48.49018 | 4.64139 | 33819 ft | 463 kts | 310° |
| 2026-05-05 20:08 | 48.52427 | 4.58086 | 33827 ft | 463 kts | 310° |
| 2026-05-05 20:08 | 48.56583 | 4.50682 | 33819 ft | 463 kts | 310° |
| 2026-05-05 20:09 | 48.60732 | 4.43267 | 33814 ft | 463 kts | 310° |
| 2026-05-05 20:09 | 48.64908 | 4.35780 | 33822 ft | 463 kts | 310° |
| 2026-05-05 20:10 | 48.69036 | 4.28358 | 33823 ft | 464 kts | 309° |
| 2026-05-05 20:10 | 48.73194 | 4.20861 | 33828 ft | 464 kts | 309° |
| 2026-05-05 20:11 | 48.77343 | 4.13359 | 33828 ft | 464 kts | 309° |
| 2026-05-05 20:11 | 48.81470 | 4.05877 | 33827 ft | 464 kts | 309° |
| 2026-05-05 20:12 | 48.85603 | 3.98363 | 33823 ft | 463 kts | 309° |
| 2026-05-05 20:12 | 48.89713 | 3.90867 | 33825 ft | 463 kts | 310° |
| 2026-05-05 20:13 | 48.93840 | 3.83320 | 33832 ft | 463 kts | 310° |
| 2026-05-05 20:13 | 48.97926 | 3.75825 | 33818 ft | 464 kts | 310° |
| 2026-05-05 20:14 | 49.02042 | 3.68257 | 33826 ft | 464 kts | 310° |
| 2026-05-05 20:14 | 49.06174 | 3.60638 | 33840 ft | 464 kts | 310° |
| 2026-05-05 20:15 | 49.10286 | 3.53035 | 33825 ft | 464 kts | 310° |
| 2026-05-05 20:15 | 49.14359 | 3.45481 | 33837 ft | 464 kts | 310° |
| 2026-05-05 20:16 | 49.18449 | 3.37873 | 33831 ft | 464 kts | 310° |
| 2026-05-05 20:16 | 49.22553 | 3.30216 | 33846 ft | 464 kts | 309° |
| 2026-05-05 20:17 | 49.26674 | 3.22505 | 33840 ft | 464 kts | 309° |
| 2026-05-05 20:17 | 49.30754 | 3.14849 | 33844 ft | 465 kts | 310° |
| 2026-05-05 20:18 | 49.34841 | 3.07160 | 33848 ft | 465 kts | 309° |
| 2026-05-05 20:18 | 49.38911 | 2.99478 | 33840 ft | 464 kts | 309° |
| 2026-05-05 20:19 | 49.42977 | 2.91783 | 33841 ft | 464 kts | 309° |
| 2026-05-05 20:19 | 49.47049 | 2.84050 | 33847 ft | 464 kts | 310° |
| 2026-05-05 20:20 | 49.51099 | 2.76341 | 33849 ft | 464 kts | 309° |
| 2026-05-05 20:20 | 49.55154 | 2.68598 | 33857 ft | 465 kts | 309° |
| 2026-05-05 20:21 | 49.59194 | 2.60860 | 33855 ft | 465 kts | 309° |
| 2026-05-05 20:21 | 49.63250 | 2.53071 | 33857 ft | 464 kts | 309° |
| 2026-05-05 20:22 | 49.67285 | 2.45298 | 33864 ft | 464 kts | 309° |
| 2026-05-05 20:22 | 49.71311 | 2.37517 | 33866 ft | 464 kts | 309° |
| 2026-05-05 20:23 | 49.75316 | 2.29759 | 33866 ft | 464 kts | 309° |
| 2026-05-05 20:23 | 49.79363 | 2.21890 | 33867 ft | 463 kts | 309° |
| 2026-05-05 20:24 | 49.83347 | 2.14125 | 33875 ft | 463 kts | 309° |
| 2026-05-05 20:24 | 49.87338 | 2.06323 | 33882 ft | 463 kts | 309° |
| 2026-05-05 20:25 | 49.91338 | 1.98480 | 33881 ft | 462 kts | 309° |
| 2026-05-05 20:25 | 49.95307 | 1.90673 | 33880 ft | 462 kts | 308° |
| 2026-05-05 20:26 | 49.99290 | 1.82816 | 33874 ft | 462 kts | 308° |
| 2026-05-05 20:26 | 50.03238 | 1.75003 | 33881 ft | 462 kts | 308° |
| 2026-05-05 20:26 | 50.05244 | 1.71060 | 33520 ft | 463 kts | 310° |
| 2026-05-05 20:27 | 50.07353 | 1.67364 | 32862 ft | 460 kts | 314° |
| 2026-05-05 20:27 | 50.09617 | 1.63928 | 32208 ft | 457 kts | 319° |
| 2026-05-05 20:27 | 50.11995 | 1.60648 | 31542 ft | 454 kts | 320° |
| 2026-05-05 20:27 | 50.14380 | 1.57430 | 30881 ft | 451 kts | 321° |
| 2026-05-05 20:28 | 50.16726 | 1.54270 | 30187 ft | 448 kts | 320° |
| 2026-05-05 20:28 | 50.19060 | 1.51116 | 29494 ft | 445 kts | 320° |
| 2026-05-05 20:28 | 50.21381 | 1.47965 | 28802 ft | 442 kts | 320° |
| 2026-05-05 20:28 | 50.23684 | 1.44827 | 28109 ft | 439 kts | 320° |
| 2026-05-05 20:29 | 50.25951 | 1.41731 | 27421 ft | 435 kts | 320° |
| 2026-05-05 20:29 | 50.28196 | 1.38662 | 26740 ft | 432 kts | 320° |
| 2026-05-05 20:29 | 50.30451 | 1.35574 | 26050 ft | 428 kts | 320° |
| 2026-05-05 20:29 | 50.32675 | 1.32526 | 25367 ft | 425 kts | 319° |
| 2026-05-05 20:30 | 50.34875 | 1.29503 | 24694 ft | 421 kts | 320° |
| 2026-05-05 20:30 | 50.37062 | 1.26496 | 24025 ft | 418 kts | 320° |
| 2026-05-05 20:30 | 50.39238 | 1.23503 | 23378 ft | 414 kts | 320° |
| 2026-05-05 20:30 | 50.41379 | 1.20554 | 22751 ft | 411 kts | 320° |
| 2026-05-05 20:31 | 50.43494 | 1.17635 | 22127 ft | 408 kts | 320° |
| 2026-05-05 20:31 | 50.45618 | 1.14699 | 21500 ft | 405 kts | 320° |
| 2026-05-05 20:31 | 50.47718 | 1.11793 | 20869 ft | 402 kts | 320° |
| 2026-05-05 20:31 | 50.49786 | 1.08928 | 20250 ft | 399 kts | 320° |
| 2026-05-05 20:32 | 50.51801 | 1.05997 | 19762 ft | 393 kts | 316° |
| 2026-05-05 20:32 | 50.53682 | 1.02918 | 19306 ft | 387 kts | 315° |
| 2026-05-05 20:32 | 50.55490 | 0.99872 | 18858 ft | 381 kts | 314° |
| 2026-05-05 20:32 | 50.57293 | 0.96818 | 18403 ft | 376 kts | 314° |
| 2026-05-05 20:33 | 50.59055 | 0.93836 | 17947 ft | 371 kts | 314° |
| 2026-05-05 20:33 | 50.60780 | 0.90914 | 17495 ft | 366 kts | 314° |
| 2026-05-05 20:33 | 50.62508 | 0.87986 | 17041 ft | 362 kts | 314° |
| 2026-05-05 20:33 | 50.64211 | 0.85103 | 16590 ft | 358 kts | 314° |
| 2026-05-05 20:34 | 50.65881 | 0.82271 | 16148 ft | 354 kts | 314° |
| 2026-05-05 20:34 | 50.67520 | 0.79432 | 15937 ft | 345 kts | 312° |
| 2026-05-05 20:34 | 50.69039 | 0.76529 | 15935 ft | 346 kts | 311° |
| 2026-05-05 20:34 | 50.70546 | 0.73584 | 15935 ft | 346 kts | 310° |
| 2026-05-05 20:35 | 50.72057 | 0.70620 | 15718 ft | 348 kts | 310° |
| 2026-05-05 20:35 | 50.73581 | 0.67625 | 15116 ft | 350 kts | 310° |
| 2026-05-05 20:35 | 50.75116 | 0.64610 | 14512 ft | 351 kts | 310° |
| 2026-05-05 20:35 | 50.76642 | 0.61610 | 13912 ft | 353 kts | 310° |
| 2026-05-05 20:36 | 50.78171 | 0.58603 | 13314 ft | 353 kts | 310° |
| 2026-05-05 20:36 | 50.79698 | 0.55599 | 12717 ft | 353 kts | 310° |
| 2026-05-05 20:36 | 50.81223 | 0.52593 | 12120 ft | 352 kts | 310° |
| 2026-05-05 20:36 | 50.82748 | 0.49583 | 11515 ft | 351 kts | 310° |
| 2026-05-05 20:37 | 50.84266 | 0.46585 | 10912 ft | 349 kts | 310° |
| 2026-05-05 20:37 | 50.85260 | 0.44621 | 10515 ft | 348 kts | 310° |
| 2026-05-05 20:37 | 50.87261 | 0.40661 | 9712 ft | 345 kts | 310° |
| 2026-05-05 20:37 | 50.88756 | 0.37698 | 9114 ft | 343 kts | 310° |
| 2026-05-05 20:38 | 50.90228 | 0.34777 | 8512 ft | 341 kts | 310° |
| 2026-05-05 20:38 | 50.91703 | 0.31845 | 7907 ft | 339 kts | 310° |
| 2026-05-05 20:38 | 50.93174 | 0.28920 | 7312 ft | 336 kts | 310° |
| 2026-05-05 20:38 | 50.94604 | 0.26071 | 7014 ft | 324 kts | 310° |
| 2026-05-05 20:39 | 50.95952 | 0.23347 | 6991 ft | 305 kts | 310° |
| 2026-05-05 20:39 | 50.97204 | 0.20796 | 6993 ft | 286 kts | 310° |
| 2026-05-05 20:39 | 50.98389 | 0.18377 | 6990 ft | 269 kts | 310° |
| 2026-05-05 20:39 | 50.99501 | 0.16107 | 6991 ft | 253 kts | 310° |
| 2026-05-05 20:40 | 51.00557 | 0.13954 | 6972 ft | 239 kts | 310° |
| 2026-05-05 20:40 | 51.01501 | 0.11793 | 6975 ft | 241 kts | 297° |
| 2026-05-05 20:40 | 51.01908 | 0.09193 | 6972 ft | 245 kts | 278° |
| 2026-05-05 20:40 | 51.02048 | 0.06519 | 6990 ft | 246 kts | 277° |
| 2026-05-05 20:41 | 51.02166 | 0.03808 | 6995 ft | 246 kts | 277° |
| 2026-05-05 20:41 | 51.02287 | 0.01121 | 7002 ft | 246 kts | 277° |
| 2026-05-05 20:41 | 51.02417 | -0.01611 | 7003 ft | 246 kts | 277° |
| 2026-05-05 20:41 | 51.02548 | -0.04275 | 7004 ft | 245 kts | 277° |
| 2026-05-05 20:42 | 51.02685 | -0.06999 | 7005 ft | 245 kts | 277° |
| 2026-05-05 20:42 | 51.02821 | -0.09681 | 7006 ft | 245 kts | 277° |
| 2026-05-05 20:42 | 51.02957 | -0.12367 | 7004 ft | 246 kts | 277° |
| 2026-05-05 20:42 | 51.03093 | -0.15065 | 7005 ft | 246 kts | 277° |
| 2026-05-05 20:43 | 51.03231 | -0.17793 | 7003 ft | 246 kts | 277° |
| 2026-05-05 20:43 | 51.03366 | -0.20488 | 7004 ft | 246 kts | 277° |
| 2026-05-05 20:43 | 51.03502 | -0.23199 | 7005 ft | 246 kts | 277° |
| 2026-05-05 20:43 | 51.03635 | -0.25897 | 7004 ft | 246 kts | 277° |
| 2026-05-05 20:44 | 51.03769 | -0.28610 | 7004 ft | 246 kts | 277° |
| 2026-05-05 20:44 | 51.03901 | -0.31318 | 7005 ft | 247 kts | 277° |
| 2026-05-05 20:44 | 51.04035 | -0.34049 | 7005 ft | 247 kts | 277° |
| 2026-05-05 20:44 | 51.04166 | -0.36727 | 7003 ft | 246 kts | 277° |
| 2026-05-05 20:45 | 51.04448 | -0.42469 | 5142 ft | 286 kts | 277° |
| 2026-05-05 20:45 | 51.04599 | -0.45591 | 4160 ft | 291 kts | 277° |
| 2026-05-05 20:45 | 51.04751 | -0.48786 | 3467 ft | 284 kts | 278° |
| 2026-05-05 20:46 | 51.05253 | -0.51662 | 3053 ft | 260 kts | 308° |
| 2026-05-05 20:46 | 51.06506 | -0.53441 | 3009 ft | 235 kts | 332° |
| 2026-05-05 20:46 | 51.07751 | -0.54967 | 2980 ft | 222 kts | 310° |
| 2026-05-05 20:46 | 51.08340 | -0.57237 | 2992 ft | 228 kts | 278° |
| 2026-05-05 20:47 | 51.08328 | -0.59791 | 3014 ft | 240 kts | 269° |
| 2026-05-05 20:47 | 51.08187 | -0.62594 | 3017 ft | 264 kts | 272° |
| 2026-05-05 20:47 | 51.08559 | -0.65429 | 2999 ft | 257 kts | 300° |
| 2026-05-05 20:47 | 51.09638 | -0.67420 | 2993 ft | 228 kts | 332° |
| 2026-05-05 20:48 | 51.11111 | -0.68121 | 3001 ft | 218 kts | 5° |
| 2026-05-05 20:48 | 51.12523 | -0.67407 | 3006 ft | 214 kts | 37° |
| 2026-05-05 20:48 | 51.13411 | -0.65570 | 3008 ft | 215 kts | 70° |
| 2026-05-05 20:48 | 51.13488 | -0.63206 | 3010 ft | 221 kts | 102° |
| 2026-05-05 20:49 | 51.12773 | -0.61018 | 3019 ft | 227 kts | 121° |
| 2026-05-05 20:49 | 51.11800 | -0.59012 | 3014 ft | 227 kts | 125° |
| 2026-05-05 20:49 | 51.10897 | -0.56989 | 3002 ft | 224 kts | 108° |
| 2026-05-05 20:49 | 51.10718 | -0.54602 | 3014 ft | 218 kts | 82° |
| 2026-05-05 20:50 | 51.10913 | -0.52238 | 3018 ft | 216 kts | 80° |
| 2026-05-05 20:50 | 51.10957 | -0.50677 | 3019 ft | 208 kts | 88° |
| 2026-05-05 20:50 | 51.10964 | -0.47844 | 3053 ft | 179 kts | 82° |
| 2026-05-05 20:50 | 51.11125 | -0.45918 | 3034 ft | 170 kts | 76° |
| 2026-05-05 20:51 | 51.11357 | -0.44209 | 3019 ft | 154 kts | 73° |
| 2026-05-05 20:51 | 51.11598 | -0.42554 | 2933 ft | 153 kts | 73° |
| 2026-05-05 20:51 | 51.11834 | -0.40899 | 2729 ft | 152 kts | 73° |
| 2026-05-05 20:51 | 51.12060 | -0.39260 | 2529 ft | 150 kts | 74° |
| 2026-05-05 20:52 | 51.12268 | -0.37716 | 2321 ft | 140 kts | 74° |
| 2026-05-05 20:52 | 51.12480 | -0.36149 | 2154 ft | 148 kts | 74° |
| 2026-05-05 20:52 | 51.12696 | -0.34545 | 1960 ft | 148 kts | 75° |
| 2026-05-05 20:52 | 51.12914 | -0.32934 | 1761 ft | 148 kts | 75° |
| 2026-05-05 20:53 | 51.13131 | -0.31331 | 1562 ft | 147 kts | 75° |
| 2026-05-05 20:53 | 51.13334 | -0.29828 | 1354 ft | 134 kts | 75° |
| 2026-05-05 20:53 | 51.13523 | -0.28439 | 1157 ft | 121 kts | 76° |
| 2026-05-05 20:53 | 51.13703 | -0.27131 | 1012 ft | 122 kts | 76° |
| 2026-05-05 20:54 | 51.13884 | -0.25815 | 860 ft | 122 kts | 76° |
| 2026-05-05 20:54 | 51.14066 | -0.24482 | 702 ft | 123 kts | 76° |
| 2026-05-05 20:54 | 51.14249 | -0.23148 | 539 ft | 124 kts | 77° |
| 2026-05-05 20:54 | 51.14434 | -0.21789 | 397 ft | 128 kts | 77° |
| 2026-05-05 20:55 | 51.14621 | -0.20422 | 213 ft | 124 kts | 78° |
| 2026-05-05 20:55 | 51.14787 | -0.19211 | 194 ft | 95 kts | 77° |
| 2026-05-05 20:55 | 51.14903 | -0.18376 | 195 ft | 56 kts | 77° |
| 2026-05-05 20:55 | 51.14977 | -0.17970 | 195 ft | 24 kts | 58° |
| 2026-05-05 20:56 | 51.15064 | -0.17778 | 195 ft | 12 kts | 48° |
| 2026-05-05 20:56 | 51.15140 | -0.17758 | 194 ft | 12 kts | 353° |
| 2026-05-05 20:56 | 51.15234 | -0.17761 | 192 ft | 14 kts | 28° |
| 2026-05-05 20:56 | 51.15274 | -0.17613 | 192 ft | 15 kts | 77° |
| 2026-05-05 20:57 | 51.15297 | -0.17443 | 190 ft | 13 kts | 78° |
| 2026-05-05 20:57 | 51.15376 | -0.17381 | 187 ft | 15 kts | 348° |
| 2026-05-05 20:57 | 51.15458 | -0.17409 | 190 ft | 10 kts | 348° |
| 2026-05-05 20:57 | 51.15524 | -0.17442 | 193 ft | 9 kts | 321° |
| 2026-05-05 20:58 | 51.15531 | -0.17547 | 193 ft | 10 kts | 258° |
| 2026-05-05 20:58 | 51.15521 | -0.17644 | 195 ft | 5 kts | 293° |
| 2026-05-05 20:58 | 51.15561 | -0.17674 | 195 ft | 5 kts | 346° |
| 2026-05-05 20:58 | 51.15582 | -0.17682 | 195 ft | 0 kts | 347° |
| 2026-05-05 20:59 | 51.15583 | -0.17683 | 195 ft | 0 kts | 347° |
| 2026-05-05 20:59 | 51.15584 | -0.17683 | 195 ft | 0 kts | 347° |